sensor_id;sensor_type;location;lat;lon;timestamp;pressure;altitude;pressure_sealevel;temperature;humidity
20156;BME280;10238;49.556;10.956;2023-05-07T00:01:28;98297.25;;;13.15;100.00
20156;BME280;10238;49.556;10.956;2023-05-07T00:04:16;98288.41;;;13.15;100.00
20156;BME280;10238;49.556;10.956;2023-05-07T00:07:04;98287.09;;;13.11;100.00
20156;BME280;10238;49.556;10.956;2023-05-07T00:09:52;98291.78;;;13.09;100.00
20156;BME280;10238;49.556;10.956;2023-05-07T00:12:41;98286.97;;;13.04;100.00
20156;BME280;10238;49.556;10.956;2023-05-07T00:15:29;98292.66;;;13.01;100.00
20156;BME280;10238;49.556;10.956;2023-05-07T00:18:17;98293.63;;;13.00;100.00
20156;BME280;10238;49.556;10.956;2023-05-07T00:21:07;98290.94;;;13.00;100.00
20156;BME280;10238;49.556;10.956;2023-05-07T00:23:55;98296.28;;;13.00;100.00
20156;BME280;10238;49.556;10.956;2023-05-07T00:26:43;98293.63;;;13.00;100.00
20156;BME280;10238;49.556;10.956;2023-05-07T00:29:32;98287.63;;;12.98;100.00
20156;BME280;10238;49.556;10.956;2023-05-07T00:32:20;98295.47;;;12.99;100.00
20156;BME280;10238;49.556;10.956;2023-05-07T00:35:08;98295.63;;;12.98;100.00
20156;BME280;10238;49.556;10.956;2023-05-07T00:37:57;98298.47;;;12.96;100.00
20156;BME280;10238;49.556;10.956;2023-05-07T00:40:45;98295.97;;;12.95;100.00
20156;BME280;10238;49.556;10.956;2023-05-07T00:43:33;98297.78;;;12.94;100.00
20156;BME280;10238;49.556;10.956;2023-05-07T00:46:23;98289.94;;;12.93;100.00
20156;BME280;10238;49.556;10.956;2023-05-07T00:49:11;98298.28;;;12.90;100.00
20156;BME280;10238;49.556;10.956;2023-05-07T00:51:59;98287.63;;;12.90;100.00
20156;BME280;10238;49.556;10.956;2023-05-07T00:54:47;98290.63;;;12.87;100.00
20156;BME280;10238;49.556;10.956;2023-05-07T00:57:36;98287.31;;;12.85;100.00
20156;BME280;10238;49.556;10.956;2023-05-07T01:00:25;98290.97;;;12.84;100.00
20156;BME280;10238;49.556;10.956;2023-05-07T01:03:15;98275.31;;;12.81;100.00
20156;BME280;10238;49.556;10.956;2023-05-07T01:06:04;98277.31;;;12.79;100.00
20156;BME280;10238;49.556;10.956;2023-05-07T01:08:56;98273.13;;;12.76;100.00
20156;BME280;10238;49.556;10.956;2023-05-07T01:11:44;98271.50;;;12.75;100.00
20156;BME280;10238;49.556;10.956;2023-05-07T01:14:32;98274.16;;;12.75;100.00
20156;BME280;10238;49.556;10.956;2023-05-07T01:17:20;98279.81;;;12.72;100.00
20156;BME280;10238;49.556;10.956;2023-05-07T01:20:10;98276.53;;;12.70;100.00
20156;BME280;10238;49.556;10.956;2023-05-07T01:23:01;98276.69;;;12.69;100.00
20156;BME280;10238;49.556;10.956;2023-05-07T01:25:54;98290.84;;;12.69;100.00
20156;BME280;10238;49.556;10.956;2023-05-07T01:28:42;98291.00;;;12.68;100.00
20156;BME280;10238;49.556;10.956;2023-05-07T01:31:30;98279.00;;;12.64;100.00
20156;BME280;10238;49.556;10.956;2023-05-07T01:34:22;98276.50;;;12.62;100.00
20156;BME280;10238;49.556;10.956;2023-05-07T01:37:10;98281.34;;;12.59;100.00
20156;BME280;10238;49.556;10.956;2023-05-07T01:40:00;98271.03;;;12.56;100.00
20156;BME280;10238;49.556;10.956;2023-05-07T01:42:48;98267.69;;;12.54;100.00
20156;BME280;10238;49.556;10.956;2023-05-07T01:45:36;98274.38;;;12.50;100.00
20156;BME280;10238;49.556;10.956;2023-05-07T01:48:25;98274.72;;;12.47;100.00
20156;BME280;10238;49.556;10.956;2023-05-07T01:51:13;98275.69;;;12.46;100.00
20156;BME280;10238;49.556;10.956;2023-05-07T01:54:01;98269.03;;;12.42;100.00
20156;BME280;10238;49.556;10.956;2023-05-07T01:56:50;98263.03;;;12.40;100.00
20156;BME280;10238;49.556;10.956;2023-05-07T01:59:39;98275.72;;;12.38;100.00
20156;BME280;10238;49.556;10.956;2023-05-07T02:02:27;98277.53;;;12.37;100.00
20156;BME280;10238;49.556;10.956;2023-05-07T02:05:15;98278.72;;;12.35;100.00
20156;BME280;10238;49.556;10.956;2023-05-07T02:08:03;98269.06;;;12.34;100.00
20156;BME280;10238;49.556;10.956;2023-05-07T02:10:51;98268.56;;;12.30;100.00
20156;BME280;10238;49.556;10.956;2023-05-07T02:13:42;98274.06;;;12.29;100.00
20156;BME280;10238;49.556;10.956;2023-05-07T02:16:30;98272.41;;;12.28;100.00
20156;BME280;10238;49.556;10.956;2023-05-07T02:19:17;98278.53;;;12.28;100.00
20156;BME280;10238;49.556;10.956;2023-05-07T02:22:07;98267.22;;;12.26;100.00
20156;BME280;10238;49.556;10.956;2023-05-07T02:24:55;98262.06;;;12.25;100.00
20156;BME280;10238;49.556;10.956;2023-05-07T02:27:43;98274.56;;;12.24;100.00
20156;BME280;10238;49.556;10.956;2023-05-07T02:30:32;98270.41;;;12.22;100.00
20156;BME280;10238;49.556;10.956;2023-05-07T02:33:20;98275.91;;;12.20;100.00
20156;BME280;10238;49.556;10.956;2023-05-07T02:36:09;98277.06;;;12.18;100.00
20156;BME280;10238;49.556;10.956;2023-05-07T02:38:57;98268.41;;;12.16;100.00
20156;BME280;10238;49.556;10.956;2023-05-07T02:41:47;98276.72;;;12.13;100.00
20156;BME280;10238;49.556;10.956;2023-05-07T02:44:35;98274.38;;;12.10;100.00
20156;BME280;10238;49.556;10.956;2023-05-07T02:47:25;98271.03;;;12.08;100.00
20156;BME280;10238;49.556;10.956;2023-05-07T02:50:15;98279.19;;;12.06;100.00
20156;BME280;10238;49.556;10.956;2023-05-07T02:53:03;98274.03;;;12.05;100.00
20156;BME280;10238;49.556;10.956;2023-05-07T02:55:51;98277.06;;;12.02;100.00
20156;BME280;10238;49.556;10.956;2023-05-07T02:58:39;98277.41;;;11.99;100.00
20156;BME280;10238;49.556;10.956;2023-05-07T03:01:27;98269.91;;;11.94;100.00
20156;BME280;10238;49.556;10.956;2023-05-07T03:04:16;98263.22;;;11.90;100.00
20156;BME280;10238;49.556;10.956;2023-05-07T03:07:04;98268.03;;;11.87;100.00
20156;BME280;10238;49.556;10.956;2023-05-07T03:09:52;98263.38;;;11.81;100.00
20156;BME280;10238;49.556;10.956;2023-05-07T03:12:40;98262.69;;;11.79;100.00
20156;BME280;10238;49.556;10.956;2023-05-07T03:15:28;98270.19;;;11.75;100.00
20156;BME280;10238;49.556;10.956;2023-05-07T03:18:16;98259.19;;;11.70;100.00
20156;BME280;10238;49.556;10.956;2023-05-07T03:21:06;98267.66;;;11.66;100.00
20156;BME280;10238;49.556;10.956;2023-05-07T03:23:53;98260.00;;;11.63;100.00
20156;BME280;10238;49.556;10.956;2023-05-07T03:26:42;98250.66;;;11.59;100.00
20156;BME280;10238;49.556;10.956;2023-05-07T03:29:30;98257.31;;;11.55;100.00
20156;BME280;10238;49.556;10.956;2023-05-07T03:32:18;98254.44;;;11.48;100.00
20156;BME280;10238;49.556;10.956;2023-05-07T03:35:06;98253.97;;;11.45;100.00
20156;BME280;10238;49.556;10.956;2023-05-07T03:37:56;98260.59;;;11.41;100.00
20156;BME280;10238;49.556;10.956;2023-05-07T03:40:44;98252.28;;;11.36;100.00
20156;BME280;10238;49.556;10.956;2023-05-07T03:43:32;98261.59;;;11.32;100.00
20156;BME280;10238;49.556;10.956;2023-05-07T03:46:19;98264.88;;;11.26;100.00
20156;BME280;10238;49.556;10.956;2023-05-07T03:49:07;98263.84;;;11.19;100.00
20156;BME280;10238;49.556;10.956;2023-05-07T03:51:55;98271.47;;;11.14;100.00
20156;BME280;10238;49.556;10.956;2023-05-07T03:54:45;98280.94;;;11.08;100.00
20156;BME280;10238;49.556;10.956;2023-05-07T03:57:33;98287.38;;;11.06;100.00
20156;BME280;10238;49.556;10.956;2023-05-07T04:00:21;98294.72;;;11.04;100.00
20156;BME280;10238;49.556;10.956;2023-05-07T04:03:09;98304.66;;;11.02;100.00
20156;BME280;10238;49.556;10.956;2023-05-07T04:05:57;98308.50;;;10.99;100.00
20156;BME280;10238;49.556;10.956;2023-05-07T04:08:45;98312.31;;;10.97;100.00
20156;BME280;10238;49.556;10.956;2023-05-07T04:11:35;98312.63;;;10.93;100.00
20156;BME280;10238;49.556;10.956;2023-05-07T04:14:23;98321.72;;;10.91;100.00
20156;BME280;10238;49.556;10.956;2023-05-07T04:17:11;98323.72;;;10.89;100.00
20156;BME280;10238;49.556;10.956;2023-05-07T04:19:58;98328.50;;;10.85;100.00
20156;BME280;10238;49.556;10.956;2023-05-07T04:22:48;98332.19;;;10.84;100.00
20156;BME280;10238;49.556;10.956;2023-05-07T04:25:36;98335.81;;;10.83;100.00
20156;BME280;10238;49.556;10.956;2023-05-07T04:28:25;98336.88;;;10.90;100.00
20156;BME280;10238;49.556;10.956;2023-05-07T04:31:13;98339.69;;;10.89;100.00
20156;BME280;10238;49.556;10.956;2023-05-07T04:34:01;98335.19;;;10.89;100.00
20156;BME280;10238;49.556;10.956;2023-05-07T04:36:49;98331.56;;;10.90;100.00
20156;BME280;10238;49.556;10.956;2023-05-07T04:39:37;98338.53;;;10.91;100.00
20156;BME280;10238;49.556;10.956;2023-05-07T04:42:25;98330.97;;;11.05;100.00
20156;BME280;10238;49.556;10.956;2023-05-07T04:45:15;98344.56;;;11.02;100.00
20156;BME280;10238;49.556;10.956;2023-05-07T04:48:03;98338.94;;;11.05;100.00
20156;BME280;10238;49.556;10.956;2023-05-07T04:50:51;98338.31;;;11.11;100.00
20156;BME280;10238;49.556;10.956;2023-05-07T04:53:39;98357.69;;;11.29;100.00
20156;BME280;10238;49.556;10.956;2023-05-07T04:56:28;98360.91;;;11.40;100.00
20156;BME280;10238;49.556;10.956;2023-05-07T04:59:16;98362.94;;;11.46;100.00
20156;BME280;10238;49.556;10.956;2023-05-07T05:02:06;98359.53;;;11.62;100.00
20156;BME280;10238;49.556;10.956;2023-05-07T05:04:54;98358.88;;;11.68;100.00
20156;BME280;10238;49.556;10.956;2023-05-07T05:07:42;98351.94;;;11.83;100.00
20156;BME280;10238;49.556;10.956;2023-05-07T05:10:30;98355.63;;;11.98;100.00
20156;BME280;10238;49.556;10.956;2023-05-07T05:13:18;98366.50;;;12.20;100.00
20156;BME280;10238;49.556;10.956;2023-05-07T05:16:06;98368.66;;;12.33;100.00
20156;BME280;10238;49.556;10.956;2023-05-07T05:18:55;98372.34;;;12.40;100.00
20156;BME280;10238;49.556;10.956;2023-05-07T05:21:43;98371.38;;;12.57;100.00
20156;BME280;10238;49.556;10.956;2023-05-07T05:24:31;98372.69;;;12.69;100.00
20156;BME280;10238;49.556;10.956;2023-05-07T05:27:18;98365.34;;;12.79;100.00
20156;BME280;10238;49.556;10.956;2023-05-07T05:30:07;98364.84;;;12.99;100.00
20156;BME280;10238;49.556;10.956;2023-05-07T05:32:55;98375.00;;;13.12;100.00
20156;BME280;10238;49.556;10.956;2023-05-07T05:35:45;98370.28;;;13.22;100.00
20156;BME280;10238;49.556;10.956;2023-05-07T05:38:33;98361.44;;;13.30;100.00
20156;BME280;10238;49.556;10.956;2023-05-07T05:41:21;98362.06;;;13.40;100.00
20156;BME280;10238;49.556;10.956;2023-05-07T05:44:08;98369.22;;;13.55;100.00
20156;BME280;10238;49.556;10.956;2023-05-07T05:46:57;98371.31;;;13.68;100.00
20156;BME280;10238;49.556;10.956;2023-05-07T05:49:45;98363.28;;;13.76;100.00
20156;BME280;10238;49.556;10.956;2023-05-07T05:52:35;98357.53;;;13.87;100.00
20156;BME280;10238;49.556;10.956;2023-05-07T05:55:23;98363.66;;;13.95;100.00
20156;BME280;10238;49.556;10.956;2023-05-07T05:58:11;98360.25;;;14.09;100.00
20156;BME280;10238;49.556;10.956;2023-05-07T06:00:59;98346.63;;;14.19;100.00
20156;BME280;10238;49.556;10.956;2023-05-07T06:03:49;98351.44;;;14.31;100.00
20156;BME280;10238;49.556;10.956;2023-05-07T06:06:37;98351.69;;;14.44;100.00
20156;BME280;10238;49.556;10.956;2023-05-07T06:09:26;98346.91;;;14.54;100.00
20156;BME280;10238;49.556;10.956;2023-05-07T06:12:14;98355.16;;;14.67;100.00
20156;BME280;10238;49.556;10.956;2023-05-07T06:15:02;98347.72;;;14.77;100.00
20156;BME280;10238;49.556;10.956;2023-05-07T06:17:50;98339.88;;;14.90;100.00
20156;BME280;10238;49.556;10.956;2023-05-07T06:20:38;98336.13;;;14.99;100.00
20156;BME280;10238;49.556;10.956;2023-05-07T06:23:27;98342.03;;;15.09;100.00
20156;BME280;10238;49.556;10.956;2023-05-07T06:26:16;98332.53;;;15.22;100.00
20156;BME280;10238;49.556;10.956;2023-05-07T06:29:04;98340.56;;;15.36;100.00
20156;BME280;10238;49.556;10.956;2023-05-07T06:31:52;98344.69;;;15.47;100.00
20156;BME280;10238;49.556;10.956;2023-05-07T06:34:41;98357.22;;;15.61;100.00
20156;BME280;10238;49.556;10.956;2023-05-07T06:37:29;98356.75;;;15.72;100.00
20156;BME280;10238;49.556;10.956;2023-05-07T06:40:17;98361.34;;;15.78;100.00
20156;BME280;10238;49.556;10.956;2023-05-07T06:43:06;98359.41;;;15.86;100.00
20156;BME280;10238;49.556;10.956;2023-05-07T06:45:54;98360.00;;;16.03;100.00
20156;BME280;10238;49.556;10.956;2023-05-07T06:48:43;98357.66;;;16.14;100.00
20156;BME280;10238;49.556;10.956;2023-05-07T06:51:31;98359.88;;;16.25;100.00
20156;BME280;10238;49.556;10.956;2023-05-07T06:54:19;98365.81;;;16.42;100.00
20156;BME280;10238;49.556;10.956;2023-05-07T06:57:07;98368.88;;;16.53;100.00
20156;BME280;10238;49.556;10.956;2023-05-07T06:59:56;98365.91;;;16.69;100.00
20156;BME280;10238;49.556;10.956;2023-05-07T07:02:44;98369.94;;;16.80;100.00
20156;BME280;10238;49.556;10.956;2023-05-07T07:05:32;98367.97;;;16.95;100.00
20156;BME280;10238;49.556;10.956;2023-05-07T07:08:20;98366.44;;;17.07;100.00
20156;BME280;10238;49.556;10.956;2023-05-07T07:11:09;98360.97;;;17.21;100.00
20156;BME280;10238;49.556;10.956;2023-05-07T07:13:57;98359.81;;;17.37;100.00
20156;BME280;10238;49.556;10.956;2023-05-07T07:16:47;98367.47;;;17.40;100.00
20156;BME280;10238;49.556;10.956;2023-05-07T07:19:35;98362.63;;;17.50;100.00
20156;BME280;10238;49.556;10.956;2023-05-07T07:22:25;98366.84;;;17.66;100.00
20156;BME280;10238;49.556;10.956;2023-05-07T07:25:13;98354.13;;;17.87;100.00
20156;BME280;10238;49.556;10.956;2023-05-07T07:28:01;98355.84;;;18.08;100.00
20156;BME280;10238;49.556;10.956;2023-05-07T07:30:50;98347.63;;;18.22;100.00
20156;BME280;10238;49.556;10.956;2023-05-07T07:33:40;98342.72;;;18.39;100.00
20156;BME280;10238;49.556;10.956;2023-05-07T07:36:28;98346.47;;;18.44;100.00
20156;BME280;10238;49.556;10.956;2023-05-07T07:39:31;98345.25;;;18.66;100.00
20156;BME280;10238;49.556;10.956;2023-05-07T07:42:19;98357.50;;;18.88;100.00
20156;BME280;10238;49.556;10.956;2023-05-07T07:45:08;98356.03;;;19.05;100.00
20156;BME280;10238;49.556;10.956;2023-05-07T07:47:55;98357.28;;;19.22;100.00
20156;BME280;10238;49.556;10.956;2023-05-07T07:50:48;98353.75;;;19.35;100.00
20156;BME280;10238;49.556;10.956;2023-05-07T07:53:35;98352.69;;;19.49;100.00
20156;BME280;10238;49.556;10.956;2023-05-07T07:56:23;98351.84;;;19.62;100.00
20156;BME280;10238;49.556;10.956;2023-05-07T07:59:11;98346.41;;;19.75;100.00
20156;BME280;10238;49.556;10.956;2023-05-07T08:02:00;98346.78;;;19.85;100.00
20156;BME280;10238;49.556;10.956;2023-05-07T08:04:48;98334.28;;;19.97;100.00
20156;BME280;10238;49.556;10.956;2023-05-07T08:07:37;98335.47;;;20.07;99.67
20156;BME280;10238;49.556;10.956;2023-05-07T08:10:25;98339.16;;;20.19;99.86
20156;BME280;10238;49.556;10.956;2023-05-07T08:13:13;98341.13;;;20.37;99.08
20156;BME280;10238;49.556;10.956;2023-05-07T08:16:02;98338.19;;;20.45;97.32
20156;BME280;10238;49.556;10.956;2023-05-07T08:18:50;98341.53;;;20.47;96.95
20156;BME280;10238;49.556;10.956;2023-05-07T08:21:39;98346.75;;;20.66;97.73
20156;BME280;10238;49.556;10.956;2023-05-07T08:24:28;98349.13;;;20.87;97.11
20156;BME280;10238;49.556;10.956;2023-05-07T08:27:16;98344.97;;;20.85;96.09
20156;BME280;10238;49.556;10.956;2023-05-07T08:30:05;98350.69;;;21.01;96.07
20156;BME280;10238;49.556;10.956;2023-05-07T08:32:53;98350.75;;;20.88;95.63
20156;BME280;10238;49.556;10.956;2023-05-07T08:35:42;98348.69;;;20.90;92.42
20156;BME280;10238;49.556;10.956;2023-05-07T08:38:29;98354.16;;;20.53;91.28
20156;BME280;10238;49.556;10.956;2023-05-07T08:41:19;98363.41;;;20.63;100.00
20156;BME280;10238;49.556;10.956;2023-05-07T08:44:12;98353.94;;;21.10;99.84
20156;BME280;10238;49.556;10.956;2023-05-07T08:47:02;98349.44;;;21.04;94.95
20156;BME280;10238;49.556;10.956;2023-05-07T08:49:50;98357.59;;;20.91;95.00
20156;BME280;10238;49.556;10.956;2023-05-07T08:52:39;98357.75;;;21.45;96.14
20156;BME280;10238;49.556;10.956;2023-05-07T08:55:29;98351.72;;;22.04;97.19
20156;BME280;10238;49.556;10.956;2023-05-07T08:58:18;98347.34;;;22.21;91.73
20156;BME280;10238;49.556;10.956;2023-05-07T09:01:08;98342.41;;;22.47;85.87
20156;BME280;10238;49.556;10.956;2023-05-07T09:03:58;98338.84;;;22.76;86.11
20156;BME280;10238;49.556;10.956;2023-05-07T09:10:22;98343.72;;;23.20;81.64
20156;BME280;10238;49.556;10.956;2023-05-07T09:13:12;98332.44;;;23.70;84.38
20156;BME280;10238;49.556;10.956;2023-05-07T09:16:12;98329.56;;;23.76;77.29
20156;BME280;10238;49.556;10.956;2023-05-07T09:19:00;98331.47;;;24.27;77.46
20156;BME280;10238;49.556;10.956;2023-05-07T09:21:49;98329.97;;;23.68;72.31
20156;BME280;10238;49.556;10.956;2023-05-07T09:24:38;98332.22;;;23.37;78.66
20156;BME280;10238;49.556;10.956;2023-05-07T09:27:26;98324.13;;;23.88;76.79
20156;BME280;10238;49.556;10.956;2023-05-07T09:30:14;98315.97;;;24.39;78.13
20156;BME280;10238;49.556;10.956;2023-05-07T09:33:04;98312.91;;;24.80;71.80
20156;BME280;10238;49.556;10.956;2023-05-07T09:35:53;98310.66;;;24.60;68.78
20156;BME280;10238;49.556;10.956;2023-05-07T09:38:42;98304.75;;;25.46;70.75
20156;BME280;10238;49.556;10.956;2023-05-07T09:41:31;98317.38;;;25.19;69.89
20156;BME280;10238;49.556;10.956;2023-05-07T09:44:20;98304.31;;;25.21;67.13
20156;BME280;10238;49.556;10.956;2023-05-07T09:47:09;98305.63;;;25.52;69.80
20156;BME280;10238;49.556;10.956;2023-05-07T09:50:00;98301.56;;;26.14;69.91
20156;BME280;10238;49.556;10.956;2023-05-07T09:52:55;98308.97;;;26.66;62.07
20156;BME280;10238;49.556;10.956;2023-05-07T09:55:43;98305.19;;;27.31;63.82
20156;BME280;10238;49.556;10.956;2023-05-07T09:58:33;98311.06;;;27.17;58.66
20156;BME280;10238;49.556;10.956;2023-05-07T10:01:25;98302.81;;;26.01;56.64
20156;BME280;10238;49.556;10.956;2023-05-07T10:04:15;98289.66;;;27.04;65.88
20156;BME280;10238;49.556;10.956;2023-05-07T10:07:05;98289.22;;;28.06;64.92
20156;BME280;10238;49.556;10.956;2023-05-07T10:09:55;98295.56;;;27.70;58.23
20156;BME280;10238;49.556;10.956;2023-05-07T10:12:49;98293.25;;;27.93;57.85
20156;BME280;10238;49.556;10.956;2023-05-07T10:15:38;98283.38;;;28.54;61.58
20156;BME280;10238;49.556;10.956;2023-05-07T10:18:26;98285.63;;;28.00;53.39
20156;BME280;10238;49.556;10.956;2023-05-07T10:21:17;98292.69;;;28.68;57.80
20156;BME280;10238;49.556;10.956;2023-05-07T10:24:10;98286.69;;;29.21;61.04
20156;BME280;10238;49.556;10.956;2023-05-07T10:27:02;98287.75;;;29.00;55.33
20156;BME280;10238;49.556;10.956;2023-05-07T10:30:00;98282.81;;;29.52;57.61
20156;BME280;10238;49.556;10.956;2023-05-07T10:32:55;98283.88;;;29.71;55.28
20156;BME280;10238;49.556;10.956;2023-05-07T10:35:46;98282.06;;;30.20;55.23
20156;BME280;10238;49.556;10.956;2023-05-07T10:38:34;98280.84;;;29.83;49.57
20156;BME280;10238;49.556;10.956;2023-05-07T10:41:23;98286.56;;;29.86;52.29
20156;BME280;10238;49.556;10.956;2023-05-07T10:44:11;98283.84;;;29.81;50.64
20156;BME280;10238;49.556;10.956;2023-05-07T10:47:06;98278.63;;;30.43;54.47
20156;BME280;10238;49.556;10.956;2023-05-07T10:50:29;98278.75;;;30.62;48.10
20156;BME280;10238;49.556;10.956;2023-05-07T10:53:24;98268.16;;;31.23;52.79
20156;BME280;10238;49.556;10.956;2023-05-07T10:56:26;98270.44;;;31.68;52.86
20156;BME280;10238;49.556;10.956;2023-05-07T10:59:34;98273.28;;;31.63;45.00
20156;BME280;10238;49.556;10.956;2023-05-07T11:06:09;98251.34;;;32.23;49.54
20156;BME280;10238;49.556;10.956;2023-05-07T11:08:58;98253.53;;;32.45;49.75
20156;BME280;10238;49.556;10.956;2023-05-07T11:11:48;98254.91;;;32.24;48.97
20156;BME280;10238;49.556;10.956;2023-05-07T11:14:44;98245.09;;;32.18;49.78
20156;BME280;10238;49.556;10.956;2023-05-07T11:17:32;98244.59;;;32.71;47.83
20156;BME280;10238;49.556;10.956;2023-05-07T11:20:49;98241.66;;;32.81;48.69
20156;BME280;10238;49.556;10.956;2023-05-07T11:23:57;98242.94;;;33.21;47.98
20156;BME280;10238;49.556;10.956;2023-05-07T11:26:48;98235.44;;;33.08;44.69
20156;BME280;10238;49.556;10.956;2023-05-07T11:29:36;98236.50;;;33.26;47.83
20156;BME280;10238;49.556;10.956;2023-05-07T11:32:27;98232.44;;;33.23;47.10
20156;BME280;10238;49.556;10.956;2023-05-07T11:35:16;98229.13;;;33.53;44.30
20156;BME280;10238;49.556;10.956;2023-05-07T11:38:05;98223.13;;;33.92;44.63
20156;BME280;10238;49.556;10.956;2023-05-07T11:40:54;98228.19;;;33.98;44.54
20156;BME280;10238;49.556;10.956;2023-05-07T11:43:59;98230.88;;;34.03;43.29
20156;BME280;10238;49.556;10.956;2023-05-07T11:46:51;98225.13;;;34.13;43.13
20156;BME280;10238;49.556;10.956;2023-05-07T11:49:39;98224.13;;;34.09;41.35
20156;BME280;10238;49.556;10.956;2023-05-07T11:52:27;98225.44;;;33.98;42.40
20156;BME280;10238;49.556;10.956;2023-05-07T11:55:18;98223.63;;;33.94;42.90
20156;BME280;10238;49.556;10.956;2023-05-07T11:58:06;98225.75;;;33.83;43.17
20156;BME280;10238;49.556;10.956;2023-05-07T12:00:57;98231.50;;;33.73;44.03
20156;BME280;10238;49.556;10.956;2023-05-07T12:03:46;98238.44;;;33.57;44.66
20156;BME280;10238;49.556;10.956;2023-05-07T12:06:36;98223.19;;;33.46;45.89
20156;BME280;10238;49.556;10.956;2023-05-07T12:09:25;98224.56;;;32.66;38.92
20156;BME280;10238;49.556;10.956;2023-05-07T12:12:13;98230.59;;;32.86;46.10
20156;BME280;10238;49.556;10.956;2023-05-07T12:15:02;98222.84;;;32.70;46.53
20156;BME280;10238;49.556;10.956;2023-05-07T12:17:51;98231.44;;;32.50;45.85
20156;BME280;10238;49.556;10.956;2023-05-07T12:20:40;98226.16;;;32.35;45.54
20156;BME280;10238;49.556;10.956;2023-05-07T12:23:28;98216.88;;;32.26;46.09
20156;BME280;10238;49.556;10.956;2023-05-07T12:26:16;98228.63;;;31.94;43.86
20156;BME280;10238;49.556;10.956;2023-05-07T12:29:07;98227.63;;;31.85;44.60
20156;BME280;10238;49.556;10.956;2023-05-07T12:31:55;98216.00;;;32.12;43.04
20156;BME280;10238;49.556;10.956;2023-05-07T12:34:45;98236.59;;;31.20;42.08
20156;BME280;10238;49.556;10.956;2023-05-07T12:37:33;98227.41;;;31.35;40.54
20156;BME280;10238;49.556;10.956;2023-05-07T12:40:23;98233.22;;;31.28;41.05
20156;BME280;10238;49.556;10.956;2023-05-07T12:43:15;98227.56;;;31.67;43.21
20156;BME280;10238;49.556;10.956;2023-05-07T12:46:05;98231.81;;;31.54;41.92
20156;BME280;10238;49.556;10.956;2023-05-07T12:48:54;98226.13;;;31.98;45.34
20156;BME280;10238;49.556;10.956;2023-05-07T12:51:43;98230.28;;;31.48;39.30
20156;BME280;10238;49.556;10.956;2023-05-07T12:54:32;98224.50;;;30.92;43.95
20156;BME280;10238;49.556;10.956;2023-05-07T12:57:21;98224.69;;;31.77;46.04
20156;BME280;10238;49.556;10.956;2023-05-07T13:00:10;98214.44;;;32.06;44.35
20156;BME280;10238;49.556;10.956;2023-05-07T13:02:59;98206.88;;;32.35;45.22
20156;BME280;10238;49.556;10.956;2023-05-07T13:05:47;98209.81;;;32.75;43.89
20156;BME280;10238;49.556;10.956;2023-05-07T13:08:37;98208.19;;;33.06;43.97
20156;BME280;10238;49.556;10.956;2023-05-07T13:11:26;98206.38;;;32.83;40.74
20156;BME280;10238;49.556;10.956;2023-05-07T13:14:14;98200.50;;;33.22;44.53
20156;BME280;10238;49.556;10.956;2023-05-07T13:17:02;98189.25;;;33.32;40.12
20156;BME280;10238;49.556;10.956;2023-05-07T13:19:50;98205.25;;;33.03;40.23
20156;BME280;10238;49.556;10.956;2023-05-07T13:22:38;98203.88;;;32.87;43.90
20156;BME280;10238;49.556;10.956;2023-05-07T13:25:28;98203.28;;;32.90;44.55
20156;BME280;10238;49.556;10.956;2023-05-07T13:28:16;98192.50;;;33.07;42.45
20156;BME280;10238;49.556;10.956;2023-05-07T13:31:04;98196.97;;;33.03;43.88
20156;BME280;10238;49.556;10.956;2023-05-07T13:33:52;98193.69;;;33.01;45.27
20156;BME280;10238;49.556;10.956;2023-05-07T13:36:40;98192.78;;;33.05;41.84
20156;BME280;10238;49.556;10.956;2023-05-07T13:39:28;98191.31;;;32.62;43.91
20156;BME280;10238;49.556;10.956;2023-05-07T13:42:18;98189.16;;;32.59;43.93
20156;BME280;10238;49.556;10.956;2023-05-07T13:45:07;98186.19;;;32.19;41.69
20156;BME280;10238;49.556;10.956;2023-05-07T13:47:56;98178.28;;;31.94;44.24
20156;BME280;10238;49.556;10.956;2023-05-07T13:50:45;98177.19;;;32.13;43.65
20156;BME280;10238;49.556;10.956;2023-05-07T13:53:32;98180.25;;;32.12;43.90
20156;BME280;10238;49.556;10.956;2023-05-07T13:56:20;98182.47;;;31.68;41.93
20156;BME280;10238;49.556;10.956;2023-05-07T13:59:11;98180.84;;;31.67;43.13
20156;BME280;10238;49.556;10.956;2023-05-07T14:02:00;98178.41;;;31.42;44.70
20156;BME280;10238;49.556;10.956;2023-05-07T14:04:48;98184.09;;;30.93;43.59
20156;BME280;10238;49.556;10.956;2023-05-07T14:07:37;98182.66;;;30.38;42.27
20156;BME280;10238;49.556;10.956;2023-05-07T14:10:25;98187.03;;;30.34;44.63
20156;BME280;10238;49.556;10.956;2023-05-07T14:13:13;98185.13;;;30.68;44.46
20156;BME280;10238;49.556;10.956;2023-05-07T14:16:03;98185.69;;;30.65;46.44
20156;BME280;10238;49.556;10.956;2023-05-07T14:18:52;98178.00;;;31.01;47.38
20156;BME280;10238;49.556;10.956;2023-05-07T14:21:43;98165.34;;;31.29;44.83
20156;BME280;10238;49.556;10.956;2023-05-07T14:24:32;98160.03;;;31.37;44.89
20156;BME280;10238;49.556;10.956;2023-05-07T14:27:24;98166.53;;;31.17;43.00
20156;BME280;10238;49.556;10.956;2023-05-07T14:30:14;98168.66;;;30.68;43.53
20156;BME280;10238;49.556;10.956;2023-05-07T14:33:07;98166.69;;;30.79;44.91
20156;BME280;10238;49.556;10.956;2023-05-07T14:35:55;98165.44;;;31.18;46.88
20156;BME280;10238;49.556;10.956;2023-05-07T14:38:44;98171.63;;;31.05;45.17
20156;BME280;10238;49.556;10.956;2023-05-07T14:41:32;98164.56;;;30.99;42.00
20156;BME280;10238;49.556;10.956;2023-05-07T14:44:20;98172.25;;;30.97;45.11
20156;BME280;10238;49.556;10.956;2023-05-07T14:47:08;98174.25;;;30.58;43.38